Terminal Aerodrome Forecast
Issued by NWS

Current Version | Previous Version | Text Only | Print | Product List | Glossary On
Versions: 1 2 3 4 5 6 7 8 9 10 11 12
056
FTUS42 KTAE 011720
TAFECP
TAF
KECP 011720Z 0118/0218 34006KT P6SM SKC
     FM020000 VRB03KT P6SM SKC=

USA.gov is the U.S. government's official web portal to all federal, state and local government web resources and services.